Terminal Aerodrome Forecast
Issued by NWS

Home | Current Version | Previous Version | Text Only | Print | Product List | Glossary On
Versions: 1 2 3 4 5 6 7 8 9 10 11 12 13 14 15 16 17 18 19 20 21 22 23 24 25 26 27 28 29 30 31 32 33 34 35 36 37 38 39 40 41 42 43
000
FTUS43 KPAH 142300
TAFOWB
TAF
KOWB 142329Z 1500/1524 12004KT 2SM BR OVC005
     FM150100 14003KT 5SM BR OVC012
     FM151800 13007KT 4SM -RA BR OVC008
      TEMPO 1519/1523 3SM RA BR=

USA.gov is the U.S. government's official web portal to all federal, state and local government web resources and services.